sensor_id;sensor_type;location;lat;lon;timestamp;temperature;humidity
21495;DHT22;10909;53.590;10.054;2023-03-03T00:00:49;5.10;73.90
21495;DHT22;10909;53.590;10.054;2023-03-03T00:03:19;5.10;74.00
21495;DHT22;10909;53.590;10.054;2023-03-03T00:05:45;5.20;74.20
21495;DHT22;10909;53.590;10.054;2023-03-03T00:08:10;5.20;74.40
21495;DHT22;10909;53.590;10.054;2023-03-03T00:10:37;5.20;74.40
21495;DHT22;10909;53.590;10.054;2023-03-03T00:13:03;5.20;74.40
21495;DHT22;10909;53.590;10.054;2023-03-03T00:15:30;5.20;74.40
21495;DHT22;10909;53.590;10.054;2023-03-03T00:17:56;5.30;74.50
21495;DHT22;10909;53.590;10.054;2023-03-03T00:22:54;5.30;74.30
21495;DHT22;10909;53.590;10.054;2023-03-03T00:25:33;5.30;74.30
21495;DHT22;10909;53.590;10.054;2023-03-03T00:28:19;5.30;74.20
21495;DHT22;10909;53.590;10.054;2023-03-03T00:30:46;5.30;74.40
21495;DHT22;10909;53.590;10.054;2023-03-03T00:33:33;5.30;74.30
21495;DHT22;10909;53.590;10.054;2023-03-03T00:36:29;5.30;74.50
21495;DHT22;10909;53.590;10.054;2023-03-03T00:41:44;5.20;74.40
21495;DHT22;10909;53.590;10.054;2023-03-03T00:50:37;5.20;74.60
21495;DHT22;10909;53.590;10.054;2023-03-03T00:52:54;5.20;74.60
21495;DHT22;10909;53.590;10.054;2023-03-03T00:55:22;5.20;74.60
21495;DHT22;10909;53.590;10.054;2023-03-03T00:57:48;5.10;74.70
21495;DHT22;10909;53.590;10.054;2023-03-03T01:00:14;5.10;74.80
21495;DHT22;10909;53.590;10.054;2023-03-03T01:02:40;5.10;74.80
21495;DHT22;10909;53.590;10.054;2023-03-03T01:05:06;5.10;74.60
21495;DHT22;10909;53.590;10.054;2023-03-03T01:07:31;5.10;74.80
21495;DHT22;10909;53.590;10.054;2023-03-03T01:09:57;5.10;74.90
21495;DHT22;10909;53.590;10.054;2023-03-03T01:12:23;5.10;75.00
21495;DHT22;10909;53.590;10.054;2023-03-03T01:14:49;5.10;75.00
21495;DHT22;10909;53.590;10.054;2023-03-03T01:17:17;5.10;75.00
21495;DHT22;10909;53.590;10.054;2023-03-03T01:19:43;5.20;75.00
21495;DHT22;10909;53.590;10.054;2023-03-03T01:22:08;5.20;75.10
21495;DHT22;10909;53.590;10.054;2023-03-03T01:24:34;5.20;75.20
21495;DHT22;10909;53.590;10.054;2023-03-03T01:27:01;5.20;75.10
21495;DHT22;10909;53.590;10.054;2023-03-03T01:29:26;5.10;75.00
21495;DHT22;10909;53.590;10.054;2023-03-03T01:31:53;5.10;75.20
21495;DHT22;10909;53.590;10.054;2023-03-03T01:34:18;5.10;75.10
21495;DHT22;10909;53.590;10.054;2023-03-03T01:36:44;5.10;75.00
21495;DHT22;10909;53.590;10.054;2023-03-03T01:39:10;5.10;74.90
21495;DHT22;10909;53.590;10.054;2023-03-03T01:41:36;5.10;75.00
21495;DHT22;10909;53.590;10.054;2023-03-03T01:44:02;5.10;75.10
21495;DHT22;10909;53.590;10.054;2023-03-03T01:49:26;5.10;75.20
21495;DHT22;10909;53.590;10.054;2023-03-03T01:51:57;5.10;75.10
21495;DHT22;10909;53.590;10.054;2023-03-03T01:54:34;5.10;75.10
21495;DHT22;10909;53.590;10.054;2023-03-03T01:57:05;5.10;75.30
21495;DHT22;10909;53.590;10.054;2023-03-03T01:59:35;5.10;75.40
21495;DHT22;10909;53.590;10.054;2023-03-03T02:02:04;5.10;75.40
21495;DHT22;10909;53.590;10.054;2023-03-03T02:04:29;5.10;75.40
21495;DHT22;10909;53.590;10.054;2023-03-03T02:07:05;5.10;75.30
21495;DHT22;10909;53.590;10.054;2023-03-03T02:10:09;5.10;75.40
21495;DHT22;10909;53.590;10.054;2023-03-03T02:12:47;5.10;75.30
21495;DHT22;10909;53.590;10.054;2023-03-03T02:15:31;5.10;75.30
21495;DHT22;10909;53.590;10.054;2023-03-03T02:18:18;5.10;75.20
21495;DHT22;10909;53.590;10.054;2023-03-03T02:26:46;5.10;75.20
21495;DHT22;10909;53.590;10.054;2023-03-03T02:29:12;5.00;75.20
21495;DHT22;10909;53.590;10.054;2023-03-03T02:31:37;5.00;75.10
21495;DHT22;10909;53.590;10.054;2023-03-03T02:34:04;4.90;75.10
21495;DHT22;10909;53.590;10.054;2023-03-03T02:36:35;4.90;75.10
21495;DHT22;10909;53.590;10.054;2023-03-03T02:39:21;4.80;75.10
21495;DHT22;10909;53.590;10.054;2023-03-03T02:42:01;4.80;75.20
21495;DHT22;10909;53.590;10.054;2023-03-03T02:44:30;4.80;75.50
21495;DHT22;10909;53.590;10.054;2023-03-03T02:46:57;4.80;75.50
21495;DHT22;10909;53.590;10.054;2023-03-03T02:49:26;4.80;75.60
21495;DHT22;10909;53.590;10.054;2023-03-03T02:51:52;4.80;75.50
21495;DHT22;10909;53.590;10.054;2023-03-03T02:54:21;4.70;75.30
21495;DHT22;10909;53.590;10.054;2023-03-03T02:56:47;4.70;75.30
21495;DHT22;10909;53.590;10.054;2023-03-03T02:59:13;4.70;75.30
21495;DHT22;10909;53.590;10.054;2023-03-03T03:01:39;4.70;75.40
21495;DHT22;10909;53.590;10.054;2023-03-03T03:04:16;4.70;75.40
21495;DHT22;10909;53.590;10.054;2023-03-03T03:06:43;4.60;75.40
21495;DHT22;10909;53.590;10.054;2023-03-03T03:09:09;4.60;75.50
21495;DHT22;10909;53.590;10.054;2023-03-03T03:11:36;4.60;75.50
21495;DHT22;10909;53.590;10.054;2023-03-03T03:14:03;4.60;75.50
21495;DHT22;10909;53.590;10.054;2023-03-03T03:16:29;4.60;75.50
21495;DHT22;10909;53.590;10.054;2023-03-03T03:18:57;4.60;75.60
21495;DHT22;10909;53.590;10.054;2023-03-03T03:21:23;4.60;75.50
21495;DHT22;10909;53.590;10.054;2023-03-03T03:23:49;4.60;75.50
21495;DHT22;10909;53.590;10.054;2023-03-03T03:26:14;4.60;75.70
21495;DHT22;10909;53.590;10.054;2023-03-03T03:28:40;4.60;75.80
21495;DHT22;10909;53.590;10.054;2023-03-03T03:31:07;4.60;75.90
21495;DHT22;10909;53.590;10.054;2023-03-03T03:33:33;4.60;75.90
21495;DHT22;10909;53.590;10.054;2023-03-03T03:35:59;4.60;76.80
21495;DHT22;10909;53.590;10.054;2023-03-03T03:38:25;4.60;76.10
21495;DHT22;10909;53.590;10.054;2023-03-03T03:40:55;4.70;76.10
21495;DHT22;10909;53.590;10.054;2023-03-03T03:43:21;4.60;75.90
21495;DHT22;10909;53.590;10.054;2023-03-03T03:45:47;4.70;75.80
21495;DHT22;10909;53.590;10.054;2023-03-03T03:48:12;4.70;75.70
21495;DHT22;10909;53.590;10.054;2023-03-03T03:50:38;4.60;75.50
21495;DHT22;10909;53.590;10.054;2023-03-03T03:53:05;4.60;75.40
21495;DHT22;10909;53.590;10.054;2023-03-03T03:55:31;4.60;75.40
21495;DHT22;10909;53.590;10.054;2023-03-03T03:57:57;4.50;75.40
21495;DHT22;10909;53.590;10.054;2023-03-03T04:00:23;4.50;75.50
21495;DHT22;10909;53.590;10.054;2023-03-03T04:02:50;4.50;76.10
21495;DHT22;10909;53.590;10.054;2023-03-03T04:05:16;4.50;75.40
21495;DHT22;10909;53.590;10.054;2023-03-03T04:07:43;4.40;75.40
21495;DHT22;10909;53.590;10.054;2023-03-03T04:10:09;4.40;75.50
21495;DHT22;10909;53.590;10.054;2023-03-03T04:12:35;4.30;75.40
21495;DHT22;10909;53.590;10.054;2023-03-03T04:15:09;4.30;75.40
21495;DHT22;10909;53.590;10.054;2023-03-03T04:17:34;4.30;75.60
21495;DHT22;10909;53.590;10.054;2023-03-03T04:20:02;4.30;75.70
21495;DHT22;10909;53.590;10.054;2023-03-03T04:22:28;4.30;75.60
21495;DHT22;10909;53.590;10.054;2023-03-03T04:25:05;4.30;75.60
21495;DHT22;10909;53.590;10.054;2023-03-03T04:27:32;4.30;75.80
21495;DHT22;10909;53.590;10.054;2023-03-03T04:29:58;4.30;75.80
21495;DHT22;10909;53.590;10.054;2023-03-03T04:32:24;4.20;75.80
21495;DHT22;10909;53.590;10.054;2023-03-03T04:34:51;4.20;75.90
21495;DHT22;10909;53.590;10.054;2023-03-03T04:37:16;4.30;76.00
21495;DHT22;10909;53.590;10.054;2023-03-03T04:39:42;4.30;76.00
21495;DHT22;10909;53.590;10.054;2023-03-03T04:42:08;4.30;75.90
21495;DHT22;10909;53.590;10.054;2023-03-03T04:44:33;4.30;75.80
21495;DHT22;10909;53.590;10.054;2023-03-03T04:46:59;4.30;76.00
21495;DHT22;10909;53.590;10.054;2023-03-03T04:49:25;4.30;76.10
21495;DHT22;10909;53.590;10.054;2023-03-03T04:51:51;4.30;76.10
21495;DHT22;10909;53.590;10.054;2023-03-03T04:54:16;4.30;76.10
21495;DHT22;10909;53.590;10.054;2023-03-03T04:56:43;4.40;76.20
21495;DHT22;10909;53.590;10.054;2023-03-03T04:59:08;4.40;76.20
21495;DHT22;10909;53.590;10.054;2023-03-03T05:01:34;4.40;76.10
21495;DHT22;10909;53.590;10.054;2023-03-03T05:04:01;4.40;76.00
21495;DHT22;10909;53.590;10.054;2023-03-03T05:06:27;4.40;76.00
21495;DHT22;10909;53.590;10.054;2023-03-03T05:08:53;4.40;76.00
21495;DHT22;10909;53.590;10.054;2023-03-03T05:11:19;4.40;76.00
21495;DHT22;10909;53.590;10.054;2023-03-03T05:13:44;4.30;76.00
21495;DHT22;10909;53.590;10.054;2023-03-03T05:16:10;4.30;76.00
21495;DHT22;10909;53.590;10.054;2023-03-03T05:18:36;4.30;75.90
21495;DHT22;10909;53.590;10.054;2023-03-03T05:21:02;4.30;76.00
21495;DHT22;10909;53.590;10.054;2023-03-03T05:23:28;4.20;75.90
21495;DHT22;10909;53.590;10.054;2023-03-03T05:25:53;4.20;76.10
21495;DHT22;10909;53.590;10.054;2023-03-03T05:28:19;4.20;76.10
21495;DHT22;10909;53.590;10.054;2023-03-03T05:30:45;4.10;76.10
21495;DHT22;10909;53.590;10.054;2023-03-03T05:33:15;4.20;76.20
21495;DHT22;10909;53.590;10.054;2023-03-03T05:35:41;4.20;76.30
21495;DHT22;10909;53.590;10.054;2023-03-03T05:38:08;4.20;76.40
21495;DHT22;10909;53.590;10.054;2023-03-03T05:40:33;4.20;76.40
21495;DHT22;10909;53.590;10.054;2023-03-03T05:42:59;4.20;76.40
21495;DHT22;10909;53.590;10.054;2023-03-03T05:45:25;4.20;76.30
21495;DHT22;10909;53.590;10.054;2023-03-03T05:47:51;4.20;76.30
21495;DHT22;10909;53.590;10.054;2023-03-03T05:50:18;4.20;76.30
21495;DHT22;10909;53.590;10.054;2023-03-03T05:52:47;4.20;76.20
21495;DHT22;10909;53.590;10.054;2023-03-03T05:55:14;4.20;76.30
21495;DHT22;10909;53.590;10.054;2023-03-03T05:57:39;4.20;76.40
21495;DHT22;10909;53.590;10.054;2023-03-03T06:00:06;4.20;76.50
21495;DHT22;10909;53.590;10.054;2023-03-03T06:02:33;4.20;76.60
21495;DHT22;10909;53.590;10.054;2023-03-03T06:04:59;4.20;76.60
21495;DHT22;10909;53.590;10.054;2023-03-03T06:07:25;4.20;76.70
21495;DHT22;10909;53.590;10.054;2023-03-03T06:09:51;4.30;76.60
21495;DHT22;10909;53.590;10.054;2023-03-03T06:12:16;4.30;76.60
21495;DHT22;10909;53.590;10.054;2023-03-03T06:14:42;4.30;76.70
21495;DHT22;10909;53.590;10.054;2023-03-03T06:17:08;4.30;76.70
21495;DHT22;10909;53.590;10.054;2023-03-03T06:19:35;4.30;76.80
21495;DHT22;10909;53.590;10.054;2023-03-03T06:22:01;4.30;76.90
21495;DHT22;10909;53.590;10.054;2023-03-03T06:24:28;4.30;76.90
21495;DHT22;10909;53.590;10.054;2023-03-03T06:27:00;4.40;76.80
21495;DHT22;10909;53.590;10.054;2023-03-03T06:29:27;4.40;76.70
21495;DHT22;10909;53.590;10.054;2023-03-03T06:31:54;4.40;76.70
21495;DHT22;10909;53.590;10.054;2023-03-03T06:34:22;4.40;76.70
21495;DHT22;10909;53.590;10.054;2023-03-03T06:36:58;4.40;76.60
21495;DHT22;10909;53.590;10.054;2023-03-03T06:39:28;4.40;76.70
21495;DHT22;10909;53.590;10.054;2023-03-03T06:41:53;4.40;76.80
21495;DHT22;10909;53.590;10.054;2023-03-03T06:44:19;4.30;76.80
21495;DHT22;10909;53.590;10.054;2023-03-03T06:46:45;4.40;76.90
21495;DHT22;10909;53.590;10.054;2023-03-03T06:49:10;4.40;77.00
21495;DHT22;10909;53.590;10.054;2023-03-03T06:51:38;4.40;77.10
21495;DHT22;10909;53.590;10.054;2023-03-03T06:54:15;4.50;77.10
21495;DHT22;10909;53.590;10.054;2023-03-03T06:56:45;4.50;77.20
21495;DHT22;10909;53.590;10.054;2023-03-03T06:59:18;4.50;77.00
21495;DHT22;10909;53.590;10.054;2023-03-03T07:01:46;4.60;77.10
21495;DHT22;10909;53.590;10.054;2023-03-03T07:04:27;4.60;77.10
21495;DHT22;10909;53.590;10.054;2023-03-03T07:07:09;4.60;76.80
21495;DHT22;10909;53.590;10.054;2023-03-03T07:09:35;4.60;76.80
21495;DHT22;10909;53.590;10.054;2023-03-03T07:12:09;4.50;76.60
21495;DHT22;10909;53.590;10.054;2023-03-03T07:14:42;4.50;76.50
21495;DHT22;10909;53.590;10.054;2023-03-03T07:17:19;4.50;76.00
21495;DHT22;10909;53.590;10.054;2023-03-03T07:19:46;4.50;76.80
21495;DHT22;10909;53.590;10.054;2023-03-03T07:22:23;4.50;76.90
21495;DHT22;10909;53.590;10.054;2023-03-03T07:24:54;4.50;77.00
21495;DHT22;10909;53.590;10.054;2023-03-03T07:27:29;4.60;77.10
21495;DHT22;10909;53.590;10.054;2023-03-03T07:30:28;4.60;77.00
21495;DHT22;10909;53.590;10.054;2023-03-03T07:32:56;4.50;77.00
21495;DHT22;10909;53.590;10.054;2023-03-03T07:35:38;4.60;77.00
21495;DHT22;10909;53.590;10.054;2023-03-03T07:38:36;4.60;77.10
21495;DHT22;10909;53.590;10.054;2023-03-03T07:41:17;4.60;77.20
21495;DHT22;10909;53.590;10.054;2023-03-03T07:43:53;4.60;77.10
21495;DHT22;10909;53.590;10.054;2023-03-03T07:46:29;4.60;77.20
21495;DHT22;10909;53.590;10.054;2023-03-03T07:48:59;4.60;77.30
21495;DHT22;10909;53.590;10.054;2023-03-03T07:51:36;4.60;77.30
21495;DHT22;10909;53.590;10.054;2023-03-03T07:54:35;4.70;77.50
21495;DHT22;10909;53.590;10.054;2023-03-03T07:57:24;4.70;77.70
21495;DHT22;10909;53.590;10.054;2023-03-03T08:00:03;4.70;77.70
21495;DHT22;10909;53.590;10.054;2023-03-03T08:02:46;4.70;77.60
21495;DHT22;10909;53.590;10.054;2023-03-03T08:08:28;4.80;77.90
21495;DHT22;10909;53.590;10.054;2023-03-03T08:10:57;4.80;77.90
21495;DHT22;10909;53.590;10.054;2023-03-03T08:18:45;5.00;77.90
21495;DHT22;10909;53.590;10.054;2023-03-03T08:21:23;5.00;77.70
21495;DHT22;10909;53.590;10.054;2023-03-03T08:23:49;5.10;77.80
21495;DHT22;10909;53.590;10.054;2023-03-03T08:26:19;5.10;77.70
21495;DHT22;10909;53.590;10.054;2023-03-03T08:28:46;5.20;77.60
21495;DHT22;10909;53.590;10.054;2023-03-03T08:31:13;5.10;77.40
21495;DHT22;10909;53.590;10.054;2023-03-03T08:33:42;5.10;77.40
21495;DHT22;10909;53.590;10.054;2023-03-03T08:36:10;5.10;77.40
21495;DHT22;10909;53.590;10.054;2023-03-03T08:38:36;5.20;77.60
21495;DHT22;10909;53.590;10.054;2023-03-03T08:41:04;5.20;77.80
21495;DHT22;10909;53.590;10.054;2023-03-03T08:43:30;5.20;77.90
21495;DHT22;10909;53.590;10.054;2023-03-03T08:46:02;5.30;78.00
21495;DHT22;10909;53.590;10.054;2023-03-03T08:48:30;5.30;78.10
21495;DHT22;10909;53.590;10.054;2023-03-03T08:50:56;5.40;78.00
21495;DHT22;10909;53.590;10.054;2023-03-03T08:53:22;5.40;78.00
21495;DHT22;10909;53.590;10.054;2023-03-03T08:55:49;5.40;77.90
21495;DHT22;10909;53.590;10.054;2023-03-03T08:58:16;5.50;78.00
21495;DHT22;10909;53.590;10.054;2023-03-03T09:00:44;5.50;78.10
21495;DHT22;10909;53.590;10.054;2023-03-03T09:03:09;5.60;78.30
21495;DHT22;10909;53.590;10.054;2023-03-03T09:05:36;5.60;78.20
21495;DHT22;10909;53.590;10.054;2023-03-03T09:08:02;5.70;78.10
21495;DHT22;10909;53.590;10.054;2023-03-03T09:10:28;5.70;77.90
21495;DHT22;10909;53.590;10.054;2023-03-03T09:12:57;5.70;77.70
21495;DHT22;10909;53.590;10.054;2023-03-03T09:15:33;5.70;77.70
21495;DHT22;10909;53.590;10.054;2023-03-03T09:18:15;5.70;77.80
21495;DHT22;10909;53.590;10.054;2023-03-03T09:20:50;5.70;77.90
21495;DHT22;10909;53.590;10.054;2023-03-03T09:23:44;5.80;78.00
21495;DHT22;10909;53.590;10.054;2023-03-03T09:26:29;5.80;78.20
21495;DHT22;10909;53.590;10.054;2023-03-03T09:31:50;5.90;78.30
21495;DHT22;10909;53.590;10.054;2023-03-03T09:34:41;6.00;78.40
21495;DHT22;10909;53.590;10.054;2023-03-03T09:37:35;6.00;78.30
21495;DHT22;10909;53.590;10.054;2023-03-03T09:43:16;6.10;78.20
21495;DHT22;10909;53.590;10.054;2023-03-03T09:46:03;6.10;77.90
21495;DHT22;10909;53.590;10.054;2023-03-03T09:48:58;6.10;77.90
21495;DHT22;10909;53.590;10.054;2023-03-03T09:51:40;6.10;78.00
21495;DHT22;10909;53.590;10.054;2023-03-03T09:54:27;6.20;78.00
21495;DHT22;10909;53.590;10.054;2023-03-03T09:57:15;6.20;78.00
21495;DHT22;10909;53.590;10.054;2023-03-03T10:06:32;6.30;77.90
21495;DHT22;10909;53.590;10.054;2023-03-03T10:09:35;6.30;77.90
21495;DHT22;10909;53.590;10.054;2023-03-03T10:12:19;6.30;77.90
21495;DHT22;10909;53.590;10.054;2023-03-03T10:17:49;6.40;78.20
21495;DHT22;10909;53.590;10.054;2023-03-03T10:23:20;6.50;78.60
21495;DHT22;10909;53.590;10.054;2023-03-03T10:25:55;6.60;78.70
21495;DHT22;10909;53.590;10.054;2023-03-03T10:28:52;6.70;78.80
21495;DHT22;10909;53.590;10.054;2023-03-03T10:31:47;6.70;79.00
21495;DHT22;10909;53.590;10.054;2023-03-03T10:34:41;6.90;78.90
21495;DHT22;10909;53.590;10.054;2023-03-03T10:40:18;7.00;78.70
21495;DHT22;10909;53.590;10.054;2023-03-03T10:54:25;7.40;78.90
21495;DHT22;10909;53.590;10.054;2023-03-03T11:16:25;7.80;77.30
21495;DHT22;10909;53.590;10.054;2023-03-03T11:24:51;7.90;77.30
21495;DHT22;10909;53.590;10.054;2023-03-03T11:36:10;8.00;76.70
21495;DHT22;10909;53.590;10.054;2023-03-03T11:38:53;8.00;76.70
21495;DHT22;10909;53.590;10.054;2023-03-03T11:41:41;8.00;76.70
21495;DHT22;10909;53.590;10.054;2023-03-03T11:47:37;8.00;77.60
21495;DHT22;10909;53.590;10.054;2023-03-03T11:50:14;8.10;77.70
21495;DHT22;10909;53.590;10.054;2023-03-03T11:55:40;8.20;77.50
21495;DHT22;10909;53.590;10.054;2023-03-03T11:58:40;8.30;77.90
21495;DHT22;10909;53.590;10.054;2023-03-03T12:01:22;8.30;77.00
21495;DHT22;10909;53.590;10.054;2023-03-03T12:09:22;8.40;76.80
21495;DHT22;10909;53.590;10.054;2023-03-03T12:12:23;8.40;76.50
21495;DHT22;10909;53.590;10.054;2023-03-03T12:17:34;8.50;76.60
21495;DHT22;10909;53.590;10.054;2023-03-03T12:23:09;8.50;76.80
21495;DHT22;10909;53.590;10.054;2023-03-03T12:25:46;8.50;76.70
21495;DHT22;10909;53.590;10.054;2023-03-03T12:28:24;8.60;76.80
21495;DHT22;10909;53.590;10.054;2023-03-03T12:31:05;8.60;76.80
21495;DHT22;10909;53.590;10.054;2023-03-03T12:33:50;8.70;77.20
21495;DHT22;10909;53.590;10.054;2023-03-03T12:44:48;9.00;77.10
21495;DHT22;10909;53.590;10.054;2023-03-03T12:47:32;9.10;77.20
21495;DHT22;10909;53.590;10.054;2023-03-03T12:55:51;9.30;76.10
21495;DHT22;10909;53.590;10.054;2023-03-03T13:06:47;9.40;75.70
21495;DHT22;10909;53.590;10.054;2023-03-03T13:15:18;9.40;75.50
21495;DHT22;10909;53.590;10.054;2023-03-03T13:21:03;9.50;75.20
21495;DHT22;10909;53.590;10.054;2023-03-03T13:26:40;9.50;75.10
21495;DHT22;10909;53.590;10.054;2023-03-03T13:29:18;9.50;75.10
21495;DHT22;10909;53.590;10.054;2023-03-03T13:31:59;9.50;75.10
21495;DHT22;10909;53.590;10.054;2023-03-03T13:35:00;9.60;74.70
21495;DHT22;10909;53.590;10.054;2023-03-03T13:37:36;9.60;74.30
21495;DHT22;10909;53.590;10.054;2023-03-03T13:47:56;9.70;74.10
21495;DHT22;10909;53.590;10.054;2023-03-03T13:53:24;9.80;74.20
21495;DHT22;10909;53.590;10.054;2023-03-03T13:59:47;9.80;70.90
21495;DHT22;10909;53.590;10.054;2023-03-03T14:05:12;9.80;71.50
21495;DHT22;10909;53.590;10.054;2023-03-03T14:13:06;9.80;72.70
21495;DHT22;10909;53.590;10.054;2023-03-03T14:15:47;9.80;71.90
21495;DHT22;10909;53.590;10.054;2023-03-03T14:18:33;9.90;72.00
21495;DHT22;10909;53.590;10.054;2023-03-03T14:21:10;10.00;71.80
21495;DHT22;10909;53.590;10.054;2023-03-03T14:24:08;10.00;71.60
21495;DHT22;10909;53.590;10.054;2023-03-03T14:26:46;10.00;72.30
21495;DHT22;10909;53.590;10.054;2023-03-03T14:31:53;10.00;71.30
21495;DHT22;10909;53.590;10.054;2023-03-03T14:36:51;10.00;70.70
21495;DHT22;10909;53.590;10.054;2023-03-03T14:39:38;10.00;70.40
21495;DHT22;10909;53.590;10.054;2023-03-03T14:42:32;10.00;71.20
21495;DHT22;10909;53.590;10.054;2023-03-03T14:45:00;10.00;71.40
21495;DHT22;10909;53.590;10.054;2023-03-03T14:47:29;10.00;71.60
21495;DHT22;10909;53.590;10.054;2023-03-03T14:49:58;10.00;70.30
21495;DHT22;10909;53.590;10.054;2023-03-03T14:52:33;9.90;69.70
21495;DHT22;10909;53.590;10.054;2023-03-03T14:55:04;9.90;69.50
21495;DHT22;10909;53.590;10.054;2023-03-03T14:57:47;9.90;70.70
21495;DHT22;10909;53.590;10.054;2023-03-03T15:02:58;9.90;70.60
21495;DHT22;10909;53.590;10.054;2023-03-03T15:05:28;9.90;70.90
21495;DHT22;10909;53.590;10.054;2023-03-03T15:07:58;9.90;71.10
21495;DHT22;10909;53.590;10.054;2023-03-03T15:10:37;9.90;70.30
21495;DHT22;10909;53.590;10.054;2023-03-03T15:15:59;9.90;70.70
21495;DHT22;10909;53.590;10.054;2023-03-03T15:18:27;9.90;69.80
21495;DHT22;10909;53.590;10.054;2023-03-03T15:23:48;9.90;70.50
21495;DHT22;10909;53.590;10.054;2023-03-03T15:26:23;9.80;69.00
21495;DHT22;10909;53.590;10.054;2023-03-03T15:28:57;9.70;68.00
21495;DHT22;10909;53.590;10.054;2023-03-03T15:31:52;9.70;69.50
21495;DHT22;10909;53.590;10.054;2023-03-03T15:35:03;9.70;69.80
21495;DHT22;10909;53.590;10.054;2023-03-03T15:37:48;9.60;69.40
21495;DHT22;10909;53.590;10.054;2023-03-03T15:54:01;9.60;70.20
21495;DHT22;10909;53.590;10.054;2023-03-03T15:56:55;9.50;70.00
21495;DHT22;10909;53.590;10.054;2023-03-03T16:05:33;9.50;69.90
21495;DHT22;10909;53.590;10.054;2023-03-03T16:08:15;9.50;69.80
21495;DHT22;10909;53.590;10.054;2023-03-03T16:11:01;9.50;69.50
21495;DHT22;10909;53.590;10.054;2023-03-03T16:13:31;9.50;69.90
21495;DHT22;10909;53.590;10.054;2023-03-03T16:19:22;9.40;69.10
21495;DHT22;10909;53.590;10.054;2023-03-03T16:22:09;9.40;68.50
21495;DHT22;10909;53.590;10.054;2023-03-03T16:32:43;9.20;69.60
21495;DHT22;10909;53.590;10.054;2023-03-03T16:38:00;9.20;70.10
21495;DHT22;10909;53.590;10.054;2023-03-03T16:40:51;9.20;69.70
21495;DHT22;10909;53.590;10.054;2023-03-03T16:43:45;9.20;69.80
21495;DHT22;10909;53.590;10.054;2023-03-03T16:46:31;9.10;69.70
21495;DHT22;10909;53.590;10.054;2023-03-03T16:49:27;9.10;69.80
21495;DHT22;10909;53.590;10.054;2023-03-03T16:54:54;9.10;69.80
21495;DHT22;10909;53.590;10.054;2023-03-03T16:57:32;9.10;69.70
21495;DHT22;10909;53.590;10.054;2023-03-03T17:00:03;9.10;69.90
21495;DHT22;10909;53.590;10.054;2023-03-03T17:05:41;9.00;69.40
21495;DHT22;10909;53.590;10.054;2023-03-03T17:13:43;9.00;70.20
21495;DHT22;10909;53.590;10.054;2023-03-03T17:22:05;9.00;70.70
21495;DHT22;10909;53.590;10.054;2023-03-03T17:30:34;8.90;70.00
21495;DHT22;10909;53.590;10.054;2023-03-03T17:43:54;8.80;69.70
21495;DHT22;10909;53.590;10.054;2023-03-03T17:46:28;8.80;69.80
21495;DHT22;10909;53.590;10.054;2023-03-03T17:51:50;8.80;70.10
21495;DHT22;10909;53.590;10.054;2023-03-03T17:57:57;8.80;70.30
21495;DHT22;10909;53.590;10.054;2023-03-03T18:00:49;8.80;69.50
21495;DHT22;10909;53.590;10.054;2023-03-03T18:03:32;8.80;70.00
21495;DHT22;10909;53.590;10.054;2023-03-03T18:20:27;8.70;70.00
21495;DHT22;10909;53.590;10.054;2023-03-03T18:22:56;8.80;70.50
21495;DHT22;10909;53.590;10.054;2023-03-03T18:25:22;8.80;70.70
21495;DHT22;10909;53.590;10.054;2023-03-03T18:33:12;8.80;70.80
21495;DHT22;10909;53.590;10.054;2023-03-03T18:35:45;8.80;70.90
21495;DHT22;10909;53.590;10.054;2023-03-03T18:41:04;8.70;71.00
21495;DHT22;10909;53.590;10.054;2023-03-03T18:54:23;8.70;70.60
21495;DHT22;10909;53.590;10.054;2023-03-03T19:04:39;8.60;70.70
21495;DHT22;10909;53.590;10.054;2023-03-03T19:17:59;8.50;71.20
21495;DHT22;10909;53.590;10.054;2023-03-03T19:20:38;8.50;71.20
21495;DHT22;10909;53.590;10.054;2023-03-03T19:23:09;8.50;71.60
21495;DHT22;10909;53.590;10.054;2023-03-03T19:25:36;8.50;71.60
21495;DHT22;10909;53.590;10.054;2023-03-03T19:31:51;8.50;72.20
21495;DHT22;10909;53.590;10.054;2023-03-03T19:34:35;8.50;71.30
21495;DHT22;10909;53.590;10.054;2023-03-03T19:37:28;8.50;71.20
21495;DHT22;10909;53.590;10.054;2023-03-03T19:51:58;8.30;71.70
21495;DHT22;10909;53.590;10.054;2023-03-03T19:56:53;8.20;71.90
21495;DHT22;10909;53.590;10.054;2023-03-03T19:59:59;8.20;71.90
21495;DHT22;10909;53.590;10.054;2023-03-03T20:05:44;8.20;72.10
21495;DHT22;10909;53.590;10.054;2023-03-03T20:08:22;8.20;72.30
21495;DHT22;10909;53.590;10.054;2023-03-03T20:10:59;8.20;72.40
21495;DHT22;10909;53.590;10.054;2023-03-03T20:13:59;8.20;72.70
21495;DHT22;10909;53.590;10.054;2023-03-03T20:16:39;8.20;72.70
21495;DHT22;10909;53.590;10.054;2023-03-03T20:22:05;8.20;72.80
21495;DHT22;10909;53.590;10.054;2023-03-03T20:27:57;8.20;72.90
21495;DHT22;10909;53.590;10.054;2023-03-03T20:38:36;8.30;73.30
21495;DHT22;10909;53.590;10.054;2023-03-03T20:47:24;8.30;73.50
21495;DHT22;10909;53.590;10.054;2023-03-03T20:58:02;8.30;73.80
21495;DHT22;10909;53.590;10.054;2023-03-03T21:00:39;8.40;73.90
21495;DHT22;10909;53.590;10.054;2023-03-03T21:05:55;8.40;74.10
21495;DHT22;10909;53.590;10.054;2023-03-03T21:11:04;8.40;74.10
21495;DHT22;10909;53.590;10.054;2023-03-03T21:13:33;8.40;74.10
21495;DHT22;10909;53.590;10.054;2023-03-03T21:16:08;8.40;74.20
21495;DHT22;10909;53.590;10.054;2023-03-03T21:18:34;8.50;74.30
21495;DHT22;10909;53.590;10.054;2023-03-03T21:21:01;8.50;74.30
21495;DHT22;10909;53.590;10.054;2023-03-03T21:23:27;8.50;74.30
21495;DHT22;10909;53.590;10.054;2023-03-03T21:25:54;8.50;74.30
21495;DHT22;10909;53.590;10.054;2023-03-03T21:28:24;8.50;74.30
21495;DHT22;10909;53.590;10.054;2023-03-03T21:33:46;8.50;74.30
21495;DHT22;10909;53.590;10.054;2023-03-03T21:36:17;8.60;74.40
21495;DHT22;10909;53.590;10.054;2023-03-03T21:38:46;8.50;74.30
21495;DHT22;10909;53.590;10.054;2023-03-03T21:41:15;8.60;74.40
21495;DHT22;10909;53.590;10.054;2023-03-03T21:43:47;8.60;74.50
21495;DHT22;10909;53.590;10.054;2023-03-03T21:46:17;8.60;74.60
21495;DHT22;10909;53.590;10.054;2023-03-03T21:48:43;8.60;74.60
21495;DHT22;10909;53.590;10.054;2023-03-03T21:51:09;8.60;75.50
21495;DHT22;10909;53.590;10.054;2023-03-03T21:53:39;8.60;74.70
21495;DHT22;10909;53.590;10.054;2023-03-03T21:56:05;8.60;74.70
21495;DHT22;10909;53.590;10.054;2023-03-03T21:58:33;8.60;74.80
21495;DHT22;10909;53.590;10.054;2023-03-03T22:00:58;8.60;74.80
21495;DHT22;10909;53.590;10.054;2023-03-03T22:03:24;8.70;74.80
21495;DHT22;10909;53.590;10.054;2023-03-03T22:05:50;8.70;74.80
21495;DHT22;10909;53.590;10.054;2023-03-03T22:08:18;8.60;74.80
21495;DHT22;10909;53.590;10.054;2023-03-03T22:10:47;8.60;74.90
21495;DHT22;10909;53.590;10.054;2023-03-03T22:13:18;8.60;75.60